Time;durP1;ratioP1;P1;durP2;ratioP2;P2;SDS_P1;SDS_P2;PMS_P1;PMS_P2;Temp;Humidity;BMP_temperature;BMP_pressure;BME280_temperature;BME280_humidity;BME280_pressure;Samples;Min_cycle;Max_cycle;Signal;HPM_P1;HPM_P2
2023/02/18 00:01:45;;;;;;;14.73;6.40;;;;;;;;;;5041597;28;20153;-81
2023/02/18 00:04:13;;;;;;;18.92;6.97;;;;;;;;;;5041284;28;20092;-82
2023/02/18 00:06:39;;;;;;;16.08;6.43;;;;;;;;;;5025202;28;20054;-82
2023/02/18 00:09:05;;;;;;;15.95;6.72;;;;;;;;;;5045744;28;20482;-81
2023/02/18 00:11:33;;;;;;;14.98;7.18;;;;;;;;;;5046600;28;20052;-82
2023/02/18 00:14:01;;;;;;;13.40;7.07;;;;;;;;;;5045488;28;20049;-82
2023/02/18 00:16:28;;;;;;;20.58;7.75;;;;;;;;;;5044749;28;20077;-81
2023/02/18 00:18:59;;;;;;;12.77;6.47;;;;;;;;;;5044174;28;20050;-81
2023/02/18 00:21:25;;;;;;;18.60;7.25;;;;;;;;;;5044193;28;20132;-82
2023/02/18 00:23:52;;;;;;;14.82;7.30;;;;;;;;;;5045549;28;20079;-82
2023/02/18 00:26:19;;;;;;;20.17;7.72;;;;;;;;;;5047710;28;20040;-82
2023/02/18 00:28:48;;;;;;;21.05;8.13;;;;;;;;;;5048262;28;20063;-83
2023/02/18 00:31:15;;;;;;;18.98;8.07;;;;;;;;;;5067643;28;20041;-83
2023/02/18 00:33:42;;;;;;;20.90;8.48;;;;;;;;;;5047048;28;20186;-81
2023/02/18 00:36:13;;;;;;;22.15;7.85;;;;;;;;;;5065226;28;20105;-80
2023/02/18 00:38:42;;;;;;;19.25;8.48;;;;;;;;;;5066289;28;20473;-81
2023/02/18 00:41:09;;;;;;;21.77;9.02;;;;;;;;;;5067987;28;20128;-83
2023/02/18 00:43:35;;;;;;;18.33;8.50;;;;;;;;;;5068916;28;20206;-83
2023/02/18 00:46:02;;;;;;;22.20;8.52;;;;;;;;;;5051789;28;20072;-81
2023/02/18 00:48:28;;;;;;;20.58;8.95;;;;;;;;;;5068733;28;20121;-82
2023/02/18 00:50:55;;;;;;;18.30;8.55;;;;;;;;;;5070345;28;20509;-82
2023/02/18 00:53:21;;;;;;;20.10;8.82;;;;;;;;;;5070234;28;20041;-82
2023/02/18 00:55:47;;;;;;;22.38;8.77;;;;;;;;;;5073573;28;20053;-81
2023/02/18 00:58:14;;;;;;;18.80;8.95;;;;;;;;;;5055304;28;20063;-82
2023/02/18 01:00:41;;;;;;;19.23;8.90;;;;;;;;;;5067272;28;20112;-81
2023/02/18 01:03:10;;;;;;;17.10;8.43;;;;;;;;;;5053730;28;20068;-83
2023/02/18 01:05:37;;;;;;;18.58;8.85;;;;;;;;;;5053059;28;20053;-82
2023/02/18 01:08:04;;;;;;;19.90;8.93;;;;;;;;;;5051106;28;20089;-81
2023/02/18 01:10:31;;;;;;;16.52;8.20;;;;;;;;;;5047759;28;20049;-81
2023/02/18 01:13:00;;;;;;;20.30;9.25;;;;;;;;;;5043067;28;20086;-81
2023/02/18 01:15:27;;;;;;;17.25;9.13;;;;;;;;;;5040109;28;20060;-80
2023/02/18 01:17:53;;;;;;;17.67;8.73;;;;;;;;;;5038006;28;20049;-81
2023/02/18 01:20:22;;;;;;;19.80;9.27;;;;;;;;;;5038405;28;20524;-80
2023/02/18 01:22:51;;;;;;;20.55;9.15;;;;;;;;;;5037556;28;20120;-80
2023/02/18 01:25:18;;;;;;;18.83;9.27;;;;;;;;;;5036044;28;20053;-80
2023/02/18 01:27:47;;;;;;;18.95;9.23;;;;;;;;;;5054206;28;20049;-80
2023/02/18 01:30:14;;;;;;;20.40;9.43;;;;;;;;;;5046325;28;20111;-81
2023/02/18 01:32:41;;;;;;;20.05;8.43;;;;;;;;;;5035928;28;20049;-81
2023/02/18 01:35:10;;;;;;;18.55;8.82;;;;;;;;;;5035284;28;20057;-82
2023/02/18 01:37:36;;;;;;;16.45;8.85;;;;;;;;;;5027746;28;20248;-82
2023/02/18 01:40:04;;;;;;;19.50;8.32;;;;;;;;;;5032059;28;20042;-81
2023/02/18 01:42:30;;;;;;;20.77;8.48;;;;;;;;;;5032467;28;20181;-81
2023/02/18 01:45:15;;;;;;;18.27;8.82;;;;;;;;;;5032708;28;20068;-81
2023/02/18 01:47:42;;;;;;;22.73;8.37;;;;;;;;;;5031357;28;20509;-82
2023/02/18 01:50:08;;;;;;;14.85;7.78;;;;;;;;;;5019574;28;20500;-81
2023/02/18 01:52:35;;;;;;;15.98;7.50;;;;;;;;;;5042451;28;20077;-80
2023/02/18 01:55:01;;;;;;;16.00;7.70;;;;;;;;;;5016083;28;20299;-81
2023/02/18 01:57:35;;;;;;;14.48;7.30;;;;;;;;;;5017834;28;20072;-81
2023/02/18 02:00:04;;;;;;;18.88;7.07;;;;;;;;;;5038710;28;20049;-80
2023/02/18 02:02:34;;;;;;;16.25;7.20;;;;;;;;;;5018686;28;20089;-82
2023/02/18 02:05:00;;;;;;;14.45;7.38;;;;;;;;;;5034139;28;20069;-81
2023/02/18 02:07:30;;;;;;;15.25;7.18;;;;;;;;;;5034657;28;20478;-82
2023/02/18 02:09:58;;;;;;;18.60;7.75;;;;;;;;;;5034503;28;20374;-82
2023/02/18 02:12:32;;;;;;;14.63;7.40;;;;;;;;;;5016487;28;20090;-82
2023/02/18 02:15:04;;;;;;;16.60;7.72;;;;;;;;;;5034649;28;20204;-81
2023/02/18 02:17:46;;;;;;;15.38;7.65;;;;;;;;;;5032707;28;20580;-82
2023/02/18 02:20:25;;;;;;;17.05;7.72;;;;;;;;;;5034500;28;20054;-82
2023/02/18 02:22:51;;;;;;;20.90;8.10;;;;;;;;;;5033873;28;20049;-81
2023/02/18 02:25:20;;;;;;;14.77;7.82;;;;;;;;;;5033204;28;20488;-82
2023/02/18 02:27:47;;;;;;;16.15;8.05;;;;;;;;;;5052347;28;20048;-82
2023/02/18 02:30:22;;;;;;;19.13;8.38;;;;;;;;;;5054127;28;20052;-83
2023/02/18 02:32:48;;;;;;;;;;;;;;;;;;5054801;28;20056;-82
2023/02/18 02:35:19;;;;;;;17.10;7.20;;;;;;;;;;5053451;28;19921;-82
2023/02/18 02:37:54;;;;;;;21.58;8.25;;;;;;;;;;5053085;28;20057;-83
2023/02/18 02:40:37;;;;;;;21.90;7.75;;;;;;;;;;5036441;28;20401;-81
2023/02/18 02:43:12;;;;;;;18.58;8.43;;;;;;;;;;5057466;28;20049;-83
2023/02/18 02:45:47;;;;;;;20.83;8.48;;;;;;;;;;5058756;28;20053;-82
2023/02/18 02:48:19;;;;;;;23.05;9.35;;;;;;;;;;5056316;28;20045;-82
2023/02/18 02:50:51;;;;;;;22.40;9.30;;;;;;;;;;5061094;28;20045;-82
2023/02/18 02:53:23;;;;;;;22.27;9.30;;;;;;;;;;5062130;28;20060;-81
2023/02/18 02:55:49;;;;;;;16.92;8.23;;;;;;;;;;5069543;28;20143;-81
2023/02/18 02:58:17;;;;;;;22.40;9.20;;;;;;;;;;5061552;28;20108;-80
2023/02/18 03:01:03;;;;;;;22.95;7.35;;;;;;;;;;5042526;28;20044;-81
2023/02/18 03:03:48;;;;;;;20.65;8.85;;;;;;;;;;5059376;28;20064;-81
2023/02/18 03:06:14;;;;;;;18.02;7.32;;;;;;;;;;5059906;28;20072;-80
2023/02/18 03:08:51;;;;;;;19.27;7.72;;;;;;;;;;5060548;28;20080;-82
2023/02/18 03:11:22;;;;;;;19.10;8.15;;;;;;;;;;5061832;28;20512;-82
2023/02/18 03:14:16;;;;;;;24.25;9.02;;;;;;;;;;5061320;28;20083;-80
2023/02/18 03:16:45;;;;;;;19.52;8.27;;;;;;;;;;5030092;28;20116;-81
2023/02/18 03:19:27;;;;;;;23.38;8.70;;;;;;;;;;5059513;28;20099;-81
2023/02/18 03:21:59;;;;;;;19.98;7.90;;;;;;;;;;5040092;28;20509;-81
2023/02/18 03:24:31;;;;;;;21.40;8.70;;;;;;;;;;5057826;28;20057;-82
2023/02/18 03:27:24;;;;;;;23.02;9.40;;;;;;;;;;5046568;28;20053;-81
2023/02/18 03:29:54;;;;;;;20.58;8.90;;;;;;;;;;5036376;28;20059;-82
2023/02/18 03:32:21;;;;;;;26.75;9.57;;;;;;;;;;5039074;28;20063;-80
2023/02/18 03:34:50;;;;;;;22.20;9.35;;;;;;;;;;5040224;28;20065;-82
2023/02/18 03:37:18;;;;;;;22.35;9.80;;;;;;;;;;5038204;28;20059;-81
2023/02/18 03:39:47;;;;;;;19.95;8.60;;;;;;;;;;5039568;28;20049;-83
2023/02/18 03:42:15;;;;;;;22.02;8.93;;;;;;;;;;5039830;28;20103;-82
2023/02/18 03:44:41;;;;;;;25.27;9.35;;;;;;;;;;5039680;28;20050;-82
2023/02/18 03:47:07;;;;;;;20.30;9.07;;;;;;;;;;5040031;28;20050;-82
2023/02/18 03:49:34;;;;;;;24.73;9.07;;;;;;;;;;5040015;28;20052;-81
2023/02/18 03:52:00;;;;;;;23.52;9.40;;;;;;;;;;5040520;28;20489;-81
2023/02/18 03:54:26;;;;;;;18.50;9.10;;;;;;;;;;5037479;28;20081;-83
2023/02/18 03:56:53;;;;;;;21.15;8.80;;;;;;;;;;5039220;28;20095;-82
2023/02/18 03:59:20;;;;;;;21.27;9.15;;;;;;;;;;5039251;28;20050;-82
2023/02/18 04:01:46;;;;;;;25.33;9.63;;;;;;;;;;5039753;28;20497;-82
2023/02/18 04:04:12;;;;;;;19.17;9.43;;;;;;;;;;5039636;28;20144;-82
2023/02/18 04:06:39;;;;;;;24.13;9.20;;;;;;;;;;5039611;28;20613;-82
2023/02/18 04:09:07;;;;;;;24.85;9.68;;;;;;;;;;5037178;28;20055;-82
2023/02/18 04:11:35;;;;;;;20.77;9.20;;;;;;;;;;5037911;28;20075;-81
2023/02/18 04:14:02;;;;;;;20.90;9.68;;;;;;;;;;5038116;28;20056;-82
2023/02/18 04:16:28;;;;;;;22.92;10.25;;;;;;;;;;5037744;28;20050;-82
2023/02/18 04:18:55;;;;;;;18.25;9.48;;;;;;;;;;5036516;28;20092;-82
2023/02/18 04:21:21;;;;;;;25.73;10.38;;;;;;;;;;5038282;28;20136;-82
2023/02/18 04:23:47;;;;;;;24.90;10.52;;;;;;;;;;5020221;28;20137;-81
2023/02/18 04:26:14;;;;;;;23.25;10.98;;;;;;;;;;5030752;28;20160;-80
2023/02/18 04:28:40;;;;;;;22.85;9.70;;;;;;;;;;5059818;28;20056;-82
2023/02/18 04:31:07;;;;;;;28.30;10.63;;;;;;;;;;5060207;28;20049;-81
2023/02/18 04:33:33;;;;;;;22.80;10.55;;;;;;;;;;5061427;28;20049;-82
2023/02/18 04:35:59;;;;;;;21.70;10.02;;;;;;;;;;5061072;28;20044;-80
2023/02/18 04:38:26;;;;;;;20.15;10.25;;;;;;;;;;5058235;28;20084;-81
2023/02/18 04:40:52;;;;;;;25.90;11.50;;;;;;;;;;5059262;28;20052;-81
2023/02/18 04:43:19;;;;;;;26.55;10.13;;;;;;;;;;5041729;28;20421;-81
2023/02/18 04:45:45;;;;;;;22.27;9.70;;;;;;;;;;5053219;28;20049;-81
2023/02/18 04:48:12;;;;;;;20.38;9.18;;;;;;;;;;5033320;28;20053;-80
2023/02/18 04:50:38;;;;;;;19.52;8.90;;;;;;;;;;5051123;28;20056;-81
2023/02/18 04:53:04;;;;;;;20.60;8.95;;;;;;;;;;5060308;28;20051;-80
2023/02/18 04:55:31;;;;;;;20.50;8.90;;;;;;;;;;5044463;28;20072;-81
2023/02/18 04:57:57;;;;;;;18.33;8.23;;;;;;;;;;5060920;28;20056;-81
2023/02/18 05:00:24;;;;;;;17.45;7.70;;;;;;;;;;5061071;28;20104;-82
2023/02/18 05:02:50;;;;;;;16.90;7.47;;;;;;;;;;5062729;28;20044;-81
2023/02/18 05:05:17;;;;;;;12.68;6.05;;;;;;;;;;5062165;28;20540;-81
2023/02/18 05:07:43;;;;;;;12.27;6.07;;;;;;;;;;5040166;28;20053;-82
2023/02/18 05:10:13;;;;;;;13.23;6.20;;;;;;;;;;5060472;28;20179;-82
2023/02/18 05:12:39;;;;;;;9.55;5.50;;;;;;;;;;5064162;28;20491;-82
2023/02/18 05:15:06;;;;;;;10.23;5.10;;;;;;;;;;5064544;28;20049;-81
2023/02/18 05:17:32;;;;;;;8.73;4.55;;;;;;;;;;5060565;28;20048;-81
2023/02/18 05:19:59;;;;;;;10.00;5.18;;;;;;;;;;5059501;28;20079;-81
2023/02/18 05:22:25;;;;;;;9.27;4.55;;;;;;;;;;5040972;28;20053;-81
2023/02/18 05:24:52;;;;;;;9.40;4.80;;;;;;;;;;5020299;28;20060;-82
2023/02/18 05:27:18;;;;;;;6.63;3.78;;;;;;;;;;5049612;28;20306;-82
2023/02/18 05:29:44;;;;;;;6.63;3.80;;;;;;;;;;5064575;28;20053;-82
2023/02/18 05:32:11;;;;;;;7.03;3.88;;;;;;;;;;5069087;28;20242;-81
2023/02/18 05:34:37;;;;;;;7.70;3.95;;;;;;;;;;5065727;28;20067;-82
2023/02/18 05:37:04;;;;;;;9.32;4.80;;;;;;;;;;5059650;28;20041;-81
2023/02/18 05:39:30;;;;;;;7.35;4.40;;;;;;;;;;5059859;28;20041;-81
2023/02/18 05:41:56;;;;;;;10.60;4.88;;;;;;;;;;5060799;28;20057;-81
2023/02/18 05:44:29;;;;;;;8.77;4.95;;;;;;;;;;5060755;28;20109;-80
2023/02/18 05:46:56;;;;;;;10.02;5.15;;;;;;;;;;5042638;28;20518;-81
2023/02/18 05:49:23;;;;;;;12.63;6.07;;;;;;;;;;5059497;28;20045;-81
2023/02/18 05:51:49;;;;;;;14.05;6.95;;;;;;;;;;5060919;28;20052;-81
2023/02/18 05:54:16;;;;;;;17.95;8.07;;;;;;;;;;5042883;28;20074;-81
2023/02/18 05:56:42;;;;;;;20.85;9.85;;;;;;;;;;5061438;28;20156;-81
2023/02/18 05:59:09;;;;;;;23.17;10.98;;;;;;;;;;5042773;28;20139;-81
2023/02/18 06:01:35;;;;;;;25.58;12.27;;;;;;;;;;5060711;28;20052;-82
2023/02/18 06:04:01;;;;;;;24.55;11.65;;;;;;;;;;5058418;28;20049;-82
2023/02/18 06:06:28;;;;;;;36.40;15.05;;;;;;;;;;5060983;28;20059;-81
2023/02/18 06:08:54;;;;;;;35.38;14.95;;;;;;;;;;5061553;28;20064;-82
2023/02/18 06:11:21;;;;;;;36.20;15.35;;;;;;;;;;5064086;28;20053;-82
2023/02/18 06:13:47;;;;;;;34.35;15.07;;;;;;;;;;5063587;28;20045;-82
2023/02/18 06:16:13;;;;;;;41.00;15.27;;;;;;;;;;5061021;28;20529;-82
2023/02/18 06:18:40;;;;;;;34.45;14.65;;;;;;;;;;5058651;28;20146;-81
2023/02/18 06:21:06;;;;;;;37.33;14.60;;;;;;;;;;5058725;28;20049;-81
2023/02/18 06:23:33;;;;;;;34.40;13.90;;;;;;;;;;5059042;28;20051;-82
2023/02/18 06:25:59;;;;;;;39.65;14.05;;;;;;;;;;5039995;28;20241;-81
2023/02/18 06:28:26;;;;;;;33.90;13.48;;;;;;;;;;5041374;28;20060;-82
2023/02/18 06:30:53;;;;;;;32.72;13.35;;;;;;;;;;5042727;28;20549;-82
2023/02/18 06:33:20;;;;;;;31.77;12.20;;;;;;;;;;5041102;28;20121;-82
2023/02/18 06:35:56;;;;;;;25.30;11.60;;;;;;;;;;5025075;28;20049;-83
2023/02/18 06:38:23;;;;;;;25.98;10.60;;;;;;;;;;5044704;28;20049;-82
2023/02/18 06:40:52;;;;;;;22.85;9.98;;;;;;;;;;5039609;28;20304;-83
2023/02/18 06:43:19;;;;;;;18.13;8.90;;;;;;;;;;5034302;28;20046;-83
2023/02/18 06:45:46;;;;;;;16.20;7.30;;;;;;;;;;5036510;28;20060;-84
2023/02/18 06:48:12;;;;;;;14.32;6.72;;;;;;;;;;5029668;28;20053;-83
2023/02/18 06:50:42;;;;;;;11.70;6.30;;;;;;;;;;5027155;28;20050;-83
2023/02/18 06:53:08;;;;;;;8.65;5.03;;;;;;;;;;5015960;28;20063;-83
2023/02/18 06:55:35;;;;;;;6.57;4.22;;;;;;;;;;5026680;28;20053;-79
2023/02/18 06:58:01;;;;;;;7.38;4.28;;;;;;;;;;5044159;28;20049;-80
2023/02/18 07:00:27;;;;;;;6.88;3.58;;;;;;;;;;5026973;28;20051;-79
2023/02/18 07:02:54;;;;;;;7.07;3.65;;;;;;;;;;5027023;28;20068;-80
2023/02/18 07:05:20;;;;;;;5.70;3.15;;;;;;;;;;5028882;28;20053;-80
2023/02/18 07:07:46;;;;;;;5.32;3.22;;;;;;;;;;5048235;28;20102;-80
2023/02/18 07:10:13;;;;;;;6.75;3.22;;;;;;;;;;5021516;28;20137;-79
2023/02/18 07:12:39;;;;;;;6.13;3.05;;;;;;;;;;5011103;28;20068;-79
2023/02/18 07:15:05;;;;;;;6.20;3.00;;;;;;;;;;5029086;28;20061;-79
2023/02/18 07:17:32;;;;;;;5.95;3.33;;;;;;;;;;5029319;28;20132;-79
2023/02/18 07:19:59;;;;;;;7.25;3.53;;;;;;;;;;5025434;28;20104;-79
2023/02/18 07:22:26;;;;;;;5.65;3.47;;;;;;;;;;5026273;28;20061;-78
2023/02/18 07:24:53;;;;;;;8.68;3.28;;;;;;;;;;5025173;28;20060;-78
2023/02/18 07:27:20;;;;;;;5.78;3.05;;;;;;;;;;5028758;28;20049;-78
2023/02/18 07:29:46;;;;;;;6.95;2.53;;;;;;;;;;5028503;28;20063;-78
2023/02/18 07:32:14;;;;;;;4.85;2.75;;;;;;;;;;5040533;28;20045;-78
2023/02/18 07:34:40;;;;;;;3.58;2.53;;;;;;;;;;5032695;28;20107;-78
2023/02/18 07:37:08;;;;;;;5.13;2.70;;;;;;;;;;5041130;28;20425;-80
2023/02/18 07:39:35;;;;;;;4.88;2.72;;;;;;;;;;5022991;28;20064;-79
2023/02/18 07:42:02;;;;;;;4.00;2.60;;;;;;;;;;5031623;28;20045;-78
2023/02/18 07:44:29;;;;;;;4.35;2.50;;;;;;;;;;5033136;28;20056;-79
2023/02/18 07:46:56;;;;;;;4.63;2.83;;;;;;;;;;5031757;28;20053;-79
2023/02/18 07:49:22;;;;;;;3.28;2.30;;;;;;;;;;5028934;28;20049;-79
2023/02/18 07:51:49;;;;;;;4.05;2.28;;;;;;;;;;5028456;28;20507;-79
2023/02/18 07:54:15;;;;;;;4.22;2.47;;;;;;;;;;5008597;28;20049;-79
2023/02/18 07:56:42;;;;;;;3.78;2.15;;;;;;;;;;5030142;28;20049;-78
2023/02/18 07:59:08;;;;;;;5.20;2.30;;;;;;;;;;5025821;28;20045;-78
2023/02/18 08:01:35;;;;;;;5.82;2.63;;;;;;;;;;5009925;28;20054;-77
2023/02/18 08:04:01;;;;;;;6.28;2.45;;;;;;;;;;5033540;28;20667;-81
2023/02/18 08:06:30;;;;;;;3.72;2.40;;;;;;;;;;5032470;28;20050;-85
2023/02/18 08:08:56;;;;;;;5.05;2.40;;;;;;;;;;5040354;28;20145;-80
2023/02/18 08:11:23;;;;;;;3.30;2.28;;;;;;;;;;5043864;28;20492;-82
2023/02/18 08:13:49;;;;;;;5.10;2.90;;;;;;;;;;5033958;28;20081;-82
2023/02/18 08:16:17;;;;;;;3.60;2.10;;;;;;;;;;5026347;28;20056;-82
2023/02/18 08:18:44;;;;;;;5.38;2.40;;;;;;;;;;5025129;28;20064;-82
2023/02/18 08:21:10;;;;;;;3.58;2.28;;;;;;;;;;5025510;28;20140;-81
2023/02/18 08:23:37;;;;;;;4.00;1.92;;;;;;;;;;5025486;28;20053;-83
2023/02/18 08:26:03;;;;;;;5.93;2.10;;;;;;;;;;5032835;28;20428;-80
2023/02/18 08:28:30;;;;;;;2.72;1.80;;;;;;;;;;5047409;28;20053;-81
2023/02/18 08:30:56;;;;;;;3.63;1.75;;;;;;;;;;5033909;28;20212;-83
2023/02/18 08:33:23;;;;;;;2.50;1.92;;;;;;;;;;5028627;28;20105;-83
2023/02/18 08:35:50;;;;;;;2.97;1.65;;;;;;;;;;5032596;28;20056;-81
2023/02/18 08:38:17;;;;;;;2.90;1.60;;;;;;;;;;5032163;28;20050;-80
2023/02/18 08:40:43;;;;;;;3.05;1.58;;;;;;;;;;5033146;28;20079;-82
2023/02/18 08:43:10;;;;;;;2.80;1.30;;;;;;;;;;5012898;28;20617;-82
2023/02/18 08:45:37;;;;;;;2.30;1.67;;;;;;;;;;5032198;28;20049;-82
2023/02/18 08:48:04;;;;;;;2.38;1.35;;;;;;;;;;5017066;28;20119;-82
2023/02/18 08:50:45;;;;;;;2.00;1.33;;;;;;;;;;5031904;28;20056;-83
2023/02/18 08:53:12;;;;;;;2.90;1.30;;;;;;;;;;5032417;28;20157;-82
2023/02/18 08:55:39;;;;;;;5.35;1.27;;;;;;;;;;5031113;28;20053;-82
2023/02/18 08:58:05;;;;;;;3.38;1.40;;;;;;;;;;5032988;28;20073;-80
2023/02/18 09:00:32;;;;;;;2.25;1.20;;;;;;;;;;5029758;28;20057;-82
2023/02/18 09:02:58;;;;;;;1.48;0.88;;;;;;;;;;5041522;28;20049;-82
2023/02/18 09:05:25;;;;;;;1.63;1.00;;;;;;;;;;5050228;28;20056;-80
2023/02/18 09:07:51;;;;;;;3.08;1.17;;;;;;;;;;5034375;28;20056;-82
2023/02/18 09:10:18;;;;;;;2.00;1.00;;;;;;;;;;5029663;28;20515;-80
2023/02/18 09:12:44;;;;;;;1.83;1.00;;;;;;;;;;5029381;28;20327;-82
2023/02/18 09:15:11;;;;;;;1.27;0.90;;;;;;;;;;5029971;28;20055;-81
2023/02/18 09:17:37;;;;;;;0.95;0.80;;;;;;;;;;5029879;28;20055;-82
2023/02/18 09:20:04;;;;;;;2.05;0.73;;;;;;;;;;5032589;28;20057;-82
2023/02/18 09:22:31;;;;;;;1.95;0.82;;;;;;;;;;5032888;28;20059;-83
2023/02/18 09:24:58;;;;;;;0.82;0.60;;;;;;;;;;5030877;28;20056;-81
2023/02/18 09:27:24;;;;;;;1.33;0.68;;;;;;;;;;5016145;28;20055;-82
2023/02/18 09:29:51;;;;;;;1.55;0.73;;;;;;;;;;5034552;28;20053;-82
2023/02/18 09:32:17;;;;;;;3.53;0.70;;;;;;;;;;5034620;28;20051;-82
2023/02/18 09:34:59;;;;;;;1.15;0.63;;;;;;;;;;5034738;28;20049;-82
2023/02/18 09:37:25;;;;;;;3.63;1.05;;;;;;;;;;5039041;28;20064;-82
2023/02/18 09:39:52;;;;;;;1.08;0.60;;;;;;;;;;5035016;28;20132;-82
2023/02/18 09:42:22;;;;;;;1.88;0.70;;;;;;;;;;5034858;28;20141;-81
2023/02/18 09:44:53;;;;;;;1.05;0.60;;;;;;;;;;5031712;28;20064;-82
2023/02/18 09:47:34;;;;;;;0.70;0.50;;;;;;;;;;5031312;28;20068;-81
2023/02/18 09:50:12;;;;;;;1.25;0.57;;;;;;;;;;5031573;28;20045;-82
2023/02/18 09:52:39;;;;;;;3.17;0.70;;;;;;;;;;5033443;28;20058;-84
2023/02/18 09:55:18;;;;;;;1.35;0.68;;;;;;;;;;5031419;28;20079;-81
2023/02/18 09:57:45;;;;;;;1.13;0.43;;;;;;;;;;5031161;28;20050;-81
2023/02/18 10:00:18;;;;;;;1.35;0.45;;;;;;;;;;5012733;28;20651;-81
2023/02/18 10:02:53;;;;;;;0.65;0.50;;;;;;;;;;5032636;28;20049;-81
2023/02/18 10:05:21;;;;;;;0.45;0.38;;;;;;;;;;5031574;28;20065;-81
2023/02/18 10:07:48;;;;;;;0.95;0.40;;;;;;;;;;5031360;28;20068;-82
2023/02/18 10:10:19;;;;;;;0.40;0.30;;;;;;;;;;5031332;28;20192;-83
2023/02/18 10:12:47;;;;;;;1.60;0.40;;;;;;;;;;5031650;28;20049;-82
2023/02/18 10:15:19;;;;;;;0.30;0.25;;;;;;;;;;5032712;28;20124;-83
2023/02/18 10:17:46;;;;;;;1.27;0.40;;;;;;;;;;5030544;28;20378;-82
2023/02/18 10:20:15;;;;;;;0.35;0.30;;;;;;;;;;5032786;28;20050;-81
2023/02/18 10:22:43;;;;;;;1.38;0.43;;;;;;;;;;5035079;28;20515;-81
2023/02/18 10:25:15;;;;;;;1.02;0.43;;;;;;;;;;5030756;28;20673;-81
2023/02/18 10:27:42;;;;;;;0.60;0.40;;;;;;;;;;5045229;28;20165;-81
2023/02/18 10:30:14;;;;;;;0.70;0.30;;;;;;;;;;5029636;28;20049;-81
2023/02/18 10:32:44;;;;;;;0.40;0.20;;;;;;;;;;5023923;28;20064;-81
2023/02/18 10:35:23;;;;;;;0.63;0.30;;;;;;;;;;5028260;28;20062;-80
2023/02/18 10:37:58;;;;;;;0.43;0.30;;;;;;;;;;5021081;28;20516;-80
2023/02/18 10:40:43;;;;;;;0.88;0.30;;;;;;;;;;5028766;28;20053;-81
2023/02/18 10:43:10;;;;;;;0.93;0.35;;;;;;;;;;5007680;28;20550;-80
2023/02/18 10:45:36;;;;;;;0.50;0.30;;;;;;;;;;5031025;28;20046;-82
2023/02/18 10:48:03;;;;;;;0.75;0.40;;;;;;;;;;5006705;28;20057;-81
2023/02/18 10:50:40;;;;;;;1.70;0.50;;;;;;;;;;5025658;28;20548;-82
2023/02/18 10:53:16;;;;;;;0.52;0.40;;;;;;;;;;5024447;28;20508;-82
2023/02/18 10:55:42;;;;;;;;;;;;;;;;;;5027104;28;20124;-83
2023/02/18 10:58:27;;;;;;;3.15;0.40;;;;;;;;;;5024437;28;19971;-82
2023/02/18 11:00:53;;;;;;;1.88;0.50;;;;;;;;;;5045995;28;20197;-80
2023/02/18 11:03:20;;;;;;;0.98;0.60;;;;;;;;;;5029637;28;20158;-82
2023/02/18 11:05:48;;;;;;;2.22;0.70;;;;;;;;;;5044551;28;20049;-81
2023/02/18 11:08:23;;;;;;;1.58;0.82;;;;;;;;;;5038764;28;20619;-82
2023/02/18 11:10:50;;;;;;;2.38;0.70;;;;;;;;;;5023672;28;20045;-83
2023/02/18 11:13:22;;;;;;;0.70;0.45;;;;;;;;;;5022900;28;20477;-81
2023/02/18 11:15:54;;;;;;;1.00;0.80;;;;;;;;;;5023410;28;20810;-82
2023/02/18 11:18:50;;;;;;;2.72;1.00;;;;;;;;;;5021477;28;20064;-81
2023/02/18 11:21:19;;;;;;;0.95;0.70;;;;;;;;;;5013100;28;20518;-82
2023/02/18 11:23:48;;;;;;;2.95;0.80;;;;;;;;;;5019609;28;20048;-80
2023/02/18 11:26:16;;;;;;;2.63;0.73;;;;;;;;;;5025882;28;20502;-79
2023/02/18 11:28:49;;;;;;;1.10;0.73;;;;;;;;;;5025427;28;20088;-80
2023/02/18 11:31:23;;;;;;;1.60;1.00;;;;;;;;;;5028539;28;20053;-81
2023/02/18 11:33:51;;;;;;;2.03;0.90;;;;;;;;;;5024364;28;20096;-80
2023/02/18 11:36:21;;;;;;;1.23;0.90;;;;;;;;;;5008995;28;20068;-81
2023/02/18 11:39:03;;;;;;;1.25;0.90;;;;;;;;;;5022846;28;20517;-82
2023/02/18 11:41:32;;;;;;;2.00;1.10;;;;;;;;;;5040939;28;20060;-81
2023/02/18 11:43:59;;;;;;;2.13;1.20;;;;;;;;;;5028687;28;20441;-81
2023/02/18 11:46:26;;;;;;;1.80;1.02;;;;;;;;;;5026504;28;20057;-79
2023/02/18 11:48:53;;;;;;;1.60;1.25;;;;;;;;;;5037580;28;20064;-81
2023/02/18 11:51:22;;;;;;;3.58;1.20;;;;;;;;;;5032547;28;20076;-80
2023/02/18 11:54:12;;;;;;;2.25;1.02;;;;;;;;;;5022013;28;20045;-82
2023/02/18 11:56:52;;;;;;;3.08;1.33;;;;;;;;;;5006518;28;20061;-80
2023/02/18 11:59:19;;;;;;;1.88;1.20;;;;;;;;;;5032184;28;20049;-82
2023/02/18 12:01:49;;;;;;;2.38;1.15;;;;;;;;;;5033711;28;20064;-81
2023/02/18 12:04:17;;;;;;;2.45;1.40;;;;;;;;;;5034917;28;20057;-81
2023/02/18 12:06:49;;;;;;;3.05;1.25;;;;;;;;;;5033251;28;20053;-80
2023/02/18 12:09:22;;;;;;;5.47;1.75;;;;;;;;;;5016046;28;20260;-81
2023/02/18 12:11:51;;;;;;;3.03;1.05;;;;;;;;;;5003909;28;20045;-81
2023/02/18 12:14:19;;;;;;;1.88;1.00;;;;;;;;;;5025860;28;20049;-82
2023/02/18 12:16:52;;;;;;;4.68;1.10;;;;;;;;;;5028544;28;20049;-81
2023/02/18 12:19:39;;;;;;;1.98;1.05;;;;;;;;;;5033363;28;20144;-80
2023/02/18 12:22:38;;;;;;;1.95;1.17;;;;;;;;;;5027041;28;20398;-80
2023/02/18 12:25:24;;;;;;;2.03;0.85;;;;;;;;;;4973069;28;20118;-80
2023/02/18 12:27:55;;;;;;;1.38;1.00;;;;;;;;;;5044958;28;20057;-81
2023/02/18 12:30:25;;;;;;;1.00;0.80;;;;;;;;;;4995608;28;20763;-80
2023/02/18 12:33:04;;;;;;;2.63;1.05;;;;;;;;;;5007499;28;20057;-81
2023/02/18 12:35:36;;;;;;;1.45;0.90;;;;;;;;;;5006491;28;20060;-82
2023/02/18 12:38:15;;;;;;;1.08;0.80;;;;;;;;;;5024877;28;20085;-81
2023/02/18 12:40:53;;;;;;;1.23;0.80;;;;;;;;;;5046495;28;20432;-82
2023/02/18 12:43:35;;;;;;;1.35;0.73;;;;;;;;;;5018063;28;20058;-80
2023/02/18 12:46:14;;;;;;;4.50;0.90;;;;;;;;;;5026399;28;20122;-79
2023/02/18 12:48:40;;;;;;;2.13;0.98;;;;;;;;;;5005508;28;20607;-80
2023/02/18 12:51:06;;;;;;;2.20;0.95;;;;;;;;;;5025642;28;20050;-80
2023/02/18 12:54:06;;;;;;;1.60;0.70;;;;;;;;;;5044611;28;20105;-80
2023/02/18 12:56:32;;;;;;;0.90;0.70;;;;;;;;;;4972078;28;20060;-79
2023/02/18 12:59:17;;;;;;;1.35;0.90;;;;;;;;;;5023950;28;20056;-80
2023/02/18 13:02:03;;;;;;;2.20;0.80;;;;;;;;;;5024479;28;20442;-80
2023/02/18 13:04:35;;;;;;;2.00;0.90;;;;;;;;;;5035511;28;20524;-80
2023/02/18 13:07:18;;;;;;;1.63;0.60;;;;;;;;;;5043488;28;20106;-79
2023/02/18 13:09:47;;;;;;;1.42;0.82;;;;;;;;;;5037479;28;20115;-80
2023/02/18 13:12:19;;;;;;;2.30;0.70;;;;;;;;;;5025182;28;20061;-80
2023/02/18 13:14:57;;;;;;;1.77;0.98;;;;;;;;;;5025745;28;20802;-79
2023/02/18 13:17:26;;;;;;;2.55;0.75;;;;;;;;;;5026051;28;20053;-80
2023/02/18 13:20:01;;;;;;;1.80;0.70;;;;;;;;;;5027346;28;20056;-81
2023/02/18 13:22:28;;;;;;;2.85;0.68;;;;;;;;;;5026710;28;20050;-80
2023/02/18 13:24:56;;;;;;;1.83;0.63;;;;;;;;;;5034270;28;20517;-79
2023/02/18 13:27:23;;;;;;;1.23;0.70;;;;;;;;;;5038765;28;20118;-80
2023/02/18 13:30:12;;;;;;;0.98;0.60;;;;;;;;;;5028714;28;20057;-79
2023/02/18 13:32:42;;;;;;;2.72;0.80;;;;;;;;;;5028601;28;20664;-81
2023/02/18 13:35:28;;;;;;;1.70;0.70;;;;;;;;;;5030518;28;20053;-80
2023/02/18 13:38:04;;;;;;;1.42;0.50;;;;;;;;;;5009966;28;20054;-81
2023/02/18 13:40:30;;;;;;;;;;;;;;;;;;5009338;28;20057;-80
2023/02/18 13:43:16;;;;;;;1.92;0.80;;;;;;;;;;5030810;28;20389;-80
2023/02/18 13:45:42;;;;;;;2.50;0.70;;;;;;;;;;5048360;28;20056;-80
2023/02/18 13:48:26;;;;;;;2.15;0.70;;;;;;;;;;5013564;28;20751;-81
2023/02/18 13:50:54;;;;;;;1.92;0.50;;;;;;;;;;5050779;28;20109;-81
2023/02/18 13:53:22;;;;;;;1.23;0.60;;;;;;;;;;5019147;28;20045;-80
2023/02/18 13:55:57;;;;;;;1.25;0.70;;;;;;;;;;5029406;28;20049;-80
2023/02/18 13:58:30;;;;;;;1.83;0.70;;;;;;;;;;5030055;28;20045;-81
2023/02/18 14:01:13;;;;;;;0.85;0.70;;;;;;;;;;5033993;28;20140;-81
2023/02/18 14:03:42;;;;;;;3.47;1.60;;;;;;;;;;5014154;28;20057;-82
2023/02/18 14:06:27;;;;;;;0.80;0.60;;;;;;;;;;5021599;28;20056;-82
2023/02/18 14:09:12;;;;;;;1.13;0.50;;;;;;;;;;5030543;28;20087;-81
2023/02/18 14:11:40;;;;;;;0.70;0.50;;;;;;;;;;5029168;28;20061;-80
2023/02/18 14:14:13;;;;;;;1.27;0.70;;;;;;;;;;5016582;28;20421;-81
2023/02/18 14:16:58;;;;;;;4.30;0.63;;;;;;;;;;5043788;28;20584;-82
2023/02/18 14:19:28;;;;;;;0.50;0.37;;;;;;;;;;5018171;28;20057;-81
2023/02/18 14:22:15;;;;;;;1.08;0.57;;;;;;;;;;5034460;28;20660;-81
2023/02/18 14:24:42;;;;;;;1.30;0.60;;;;;;;;;;5030383;28;20060;-80
2023/02/18 14:27:14;;;;;;;1.63;0.50;;;;;;;;;;5043026;28;20072;-80
2023/02/18 14:29:40;;;;;;;4.13;1.00;;;;;;;;;;5037811;28;20061;-82
2023/02/18 14:32:10;;;;;;;0.95;0.60;;;;;;;;;;5030345;28;20149;-81
2023/02/18 14:34:55;;;;;;;0.50;0.40;;;;;;;;;;5010565;28;20088;-80
2023/02/18 14:37:42;;;;;;;0.80;0.50;;;;;;;;;;5029147;28;20376;-80
2023/02/18 14:40:27;;;;;;;0.73;0.50;;;;;;;;;;4960704;28;20053;-80
2023/02/18 14:43:03;;;;;;;3.22;0.70;;;;;;;;;;5026702;28;20049;-81
2023/02/18 14:45:48;;;;;;;0.90;0.50;;;;;;;;;;5042290;28;20048;-79
2023/02/18 14:48:50;;;;;;;0.70;0.40;;;;;;;;;;5047317;28;20515;-80
2023/02/18 14:51:20;;;;;;;1.33;0.50;;;;;;;;;;4967419;28;20412;-79
2023/02/18 14:53:46;;;;;;;1.10;0.43;;;;;;;;;;5014609;28;20168;-80
2023/02/18 14:56:14;;;;;;;2.03;0.52;;;;;;;;;;5033116;28;20276;-80